Pound Ridge, New York
Current Conditions -  °F | °C
As of 10:53 PM on Sunday 21 Dec 2014 (Local Time) from KDXR Reporting Station
Overcast Overcast  
Wind Chill: 33°   Ceiling: 700
Heat Index: 33°   Visibility: 7mi
Dew Point: 28°   Wind: 0mph
Humidity: 82%   Direction: NA
Pressure: 30.33"   Gusts: NA
Location:  41.21°N, 73.57°W
Report Text: KDXR 220353Z AUTO 00000KT 7SM OVC007 01/M02 A3033 RMK AO2 SNE01 SLP276 P0000 T00061022
Loading
Personal Weather Stations






























Interactive Weather Map New forecast layout! Learn more

10-Day Weather Forecast

Advertisements
Track Severe Weather on mobile